createdAt,value
2022-11-12T00:00:53.895Z,100539.34
2022-11-12T00:03:21.129Z,100534.13
2022-11-12T00:05:49.558Z,100533.22
2022-11-12T00:08:17.283Z,100520.22
2022-11-12T00:10:44.882Z,100527.97
2022-11-12T00:13:11.615Z,100517.69
2022-11-12T00:15:38.226Z,100520.22
2022-11-12T00:18:04.911Z,100515.84
2022-11-12T00:20:31.480Z,100515.03
2022-11-12T00:22:58.205Z,100507.28
2022-11-12T00:25:24.768Z,100509.03
2022-11-12T00:27:51.315Z,100516.66
2022-11-12T00:30:18.017Z,100514.03
2022-11-12T00:32:44.517Z,100514.97
2022-11-12T00:35:13.935Z,100520.13
2022-11-12T00:37:40.757Z,100522.53
2022-11-12T00:40:08.262Z,100517.41
2022-11-12T00:42:34.814Z,100519.03
2022-11-12T00:45:01.484Z,100525.16
2022-11-12T00:47:28.157Z,100529.38
2022-11-12T00:49:54.675Z,100528.53
2022-11-12T00:52:21.479Z,100520.63
2022-11-12T00:54:48.429Z,100519.69
2022-11-12T00:57:14.940Z,100524.09
2022-11-12T00:59:41.463Z,100526.03
2022-11-12T01:02:08.100Z,100526.69
2022-11-12T01:04:34.704Z,100531.84
2022-11-12T01:07:01.240Z,100526.53
2022-11-12T01:09:27.752Z,100523.13
2022-11-12T01:11:54.247Z,100513.56
2022-11-12T01:14:20.736Z,100508.44
2022-11-12T01:16:47.744Z,100508.25
2022-11-12T01:19:14.241Z,100509.13
2022-11-12T01:21:42.858Z,100505.63
2022-11-12T01:24:10.250Z,100503.13
2022-11-12T01:26:37.454Z,100501.47
2022-11-12T01:29:04.645Z,100505.72
2022-11-12T01:31:34.477Z,100509.06
2022-11-12T01:34:04.487Z,100499.63
2022-11-12T01:36:35.830Z,100495.22
2022-11-12T01:39:03.043Z,100500.41
2022-11-12T01:41:32.623Z,100503.81
2022-11-12T01:44:23.141Z,100506.44
2022-11-12T01:46:58.602Z,100505.63
2022-11-12T01:49:33.074Z,100500.31
2022-11-12T01:52:10.873Z,100505.38
2022-11-12T01:54:38.649Z,100497.72
2022-11-12T01:57:06.865Z,100496.09
2022-11-12T01:59:40.755Z,100490.25
2022-11-12T02:02:07.221Z,100498.72
2022-11-12T02:04:35.766Z,100495.38
2022-11-12T02:07:03.313Z,100500.28
2022-11-12T02:09:30.679Z,100493.41
2022-11-12T02:11:59.490Z,100496.00
2022-11-12T02:14:27.121Z,100489.09
2022-11-12T02:16:54.082Z,100487.53
2022-11-12T02:19:20.892Z,100487.44
2022-11-12T02:21:47.535Z,100488.44
2022-11-12T02:24:14.025Z,100480.59
2022-11-12T02:26:47.723Z,100482.31
2022-11-12T02:29:14.231Z,100488.41
2022-11-12T02:31:40.811Z,100484.03
2022-11-12T02:34:07.368Z,100488.47
2022-11-12T02:36:33.927Z,100478.97
2022-11-12T02:39:00.587Z,100481.69
2022-11-12T02:41:27.167Z,100476.41
2022-11-12T02:43:54.043Z,100484.16
2022-11-12T02:46:20.861Z,100481.69
2022-11-12T02:48:47.548Z,100481.63
2022-11-12T02:51:14.290Z,100481.59
2022-11-12T02:53:40.822Z,100480.81
2022-11-12T02:56:07.774Z,100482.47
2022-11-12T02:58:34.252Z,100479.88
2022-11-12T03:01:00.849Z,100479.88
2022-11-12T03:03:27.346Z,100485.88
2022-11-12T03:05:59.290Z,100474.66
2022-11-12T03:08:27.137Z,100468.47
2022-11-12T03:10:54.088Z,100459.91
2022-11-12T03:13:21.262Z,100459.78
2022-11-12T03:15:48.256Z,100452.16
2022-11-12T03:18:14.899Z,100439.25
2022-11-12T03:20:41.573Z,100435.78
2022-11-12T03:23:11.851Z,100434.97
2022-11-12T03:25:38.974Z,100429.72
2022-11-12T03:28:08.082Z,100427.91
2022-11-12T03:30:37.441Z,100417.69
2022-11-12T03:33:04.701Z,100420.25
2022-11-12T03:35:32.317Z,100428.91
2022-11-12T03:37:58.820Z,100434.84
2022-11-12T03:40:25.691Z,100426.13
2022-11-12T03:42:53.176Z,100423.69
2022-11-12T03:45:21.752Z,100421.00
2022-11-12T03:47:50.362Z,100413.22
2022-11-12T03:50:19.171Z,100426.19
2022-11-12T03:52:47.249Z,100423.59
2022-11-12T03:55:15.284Z,100416.75
2022-11-12T03:57:42.082Z,100410.66
2022-11-12T04:00:10.556Z,100402.09
2022-11-12T04:02:37.213Z,100406.31
2022-11-12T04:05:23.468Z,100400.38
2022-11-12T04:08:14.925Z,100406.34
2022-11-12T04:10:41.640Z,100407.97
2022-11-12T04:13:26.544Z,100400.28
2022-11-12T04:16:19.961Z,100413.19
2022-11-12T04:19:07.309Z,100393.38
2022-11-12T04:21:54.720Z,100414.88
2022-11-12T04:24:54.907Z,100415.66
2022-11-12T04:27:22.776Z,100412.22
2022-11-12T04:30:08.090Z,100405.38
2022-11-12T04:32:37.795Z,100414.75
2022-11-12T04:35:06.318Z,100404.41
2022-11-12T04:37:47.014Z,100400.75
2022-11-12T04:40:35.212Z,100400.00
2022-11-12T04:43:21.987Z,100396.53
2022-11-12T04:45:51.989Z,100400.03
2022-11-12T04:48:19.356Z,100397.47
2022-11-12T04:50:49.756Z,100399.13
2022-11-12T04:53:16.636Z,100399.19
2022-11-12T04:55:43.128Z,100399.06
2022-11-12T04:58:09.768Z,100406.00
2022-11-12T05:00:36.266Z,100418.81
2022-11-12T05:03:02.805Z,100414.56
2022-11-12T05:05:33.608Z,100416.25
2022-11-12T05:08:02.475Z,100416.31
2022-11-12T05:10:29.792Z,100418.94
2022-11-12T05:12:56.317Z,100416.22
2022-11-12T05:15:23.494Z,100419.66
2022-11-12T05:17:50.136Z,100408.47
2022-11-12T05:20:17.736Z,100416.16
2022-11-12T05:22:59.176Z,100416.91
2022-11-12T05:25:31.104Z,100417.03
2022-11-12T05:27:57.584Z,100421.34
2022-11-12T05:30:24.116Z,100418.69
2022-11-12T05:32:50.584Z,100420.28
2022-11-12T05:35:17.136Z,100416.09
2022-11-12T05:37:43.904Z,100417.78
2022-11-12T05:40:10.675Z,100413.50
2022-11-12T05:42:37.160Z,100412.63
2022-11-12T05:45:04.399Z,100420.34
2022-11-12T05:47:30.962Z,100413.38
2022-11-12T05:49:57.444Z,100423.84
2022-11-12T05:52:23.962Z,100409.28
2022-11-12T05:54:50.413Z,100415.09
2022-11-12T05:57:16.889Z,100410.78
2022-11-12T05:59:43.367Z,100414.19
2022-11-12T06:02:09.913Z,100415.94
2022-11-12T06:04:36.462Z,100414.22
2022-11-12T06:07:04.571Z,100406.44
2022-11-12T06:09:31.146Z,100411.53
2022-11-12T06:11:57.668Z,100410.72
2022-11-12T06:14:24.158Z,100417.66
2022-11-12T06:16:50.696Z,100421.09
2022-11-12T06:19:17.191Z,100412.59
2022-11-12T06:21:43.730Z,100426.38
2022-11-12T06:24:10.564Z,100430.63
2022-11-12T06:26:38.049Z,100436.75
2022-11-12T06:29:04.678Z,100432.28
2022-11-12T06:31:31.179Z,100429.88
2022-11-12T06:33:57.733Z,100438.38
2022-11-12T06:36:24.579Z,100445.28
2022-11-12T06:38:51.134Z,100450.41
2022-11-12T06:41:17.732Z,100439.28
2022-11-12T06:43:44.299Z,100447.81
2022-11-12T06:46:16.096Z,100448.78
2022-11-12T06:48:42.891Z,100462.56
2022-11-12T06:51:18.417Z,100471.13
2022-11-12T06:53:45.706Z,100491.84
2022-11-12T06:56:12.511Z,100495.25
2022-11-12T06:58:39.472Z,100502.91
2022-11-12T07:01:12.460Z,100506.44
2022-11-12T07:03:41.622Z,100511.63
2022-11-12T07:06:18.642Z,100520.25
2022-11-12T07:08:45.272Z,100528.09
2022-11-12T07:11:11.818Z,100530.63
2022-11-12T07:13:38.570Z,100524.63
2022-11-12T07:16:08.160Z,100523.81
2022-11-12T07:18:35.467Z,100525.53
2022-11-12T07:21:08.621Z,100526.31
2022-11-12T07:23:36.476Z,100512.56
2022-11-12T07:26:06.262Z,100526.47
2022-11-12T07:28:33.210Z,100520.38
2022-11-12T07:31:04.974Z,100523.91
2022-11-12T07:33:32.582Z,100535.16
2022-11-12T07:36:10.725Z,100531.75
2022-11-12T07:38:39.528Z,100531.84
2022-11-12T07:41:16.834Z,100538.66
2022-11-12T07:43:45.731Z,100535.22
2022-11-12T07:46:14.043Z,100535.25
2022-11-12T07:48:41.518Z,100543.06
2022-11-12T07:51:15.802Z,100543.91
2022-11-12T07:53:43.131Z,100545.63
2022-11-12T07:56:12.120Z,100551.00
2022-11-12T07:58:38.977Z,100557.81
2022-11-12T08:01:09.685Z,100549.41
2022-11-12T08:03:36.494Z,100576.97
2022-11-12T08:06:03.854Z,100576.19
2022-11-12T08:08:30.328Z,100571.94
2022-11-12T08:10:58.025Z,100587.53
2022-11-12T08:13:24.777Z,100591.69
2022-11-12T08:15:52.448Z,100596.31
2022-11-12T08:18:19.252Z,100610.16
2022-11-12T08:20:45.747Z,100624.06
2022-11-12T08:23:12.558Z,100638.81
2022-11-12T08:25:39.094Z,100645.66
2022-11-12T08:28:05.654Z,100643.06
2022-11-12T08:30:32.211Z,100650.13
2022-11-12T08:33:00.455Z,100667.50
2022-11-12T08:35:28.252Z,100677.19
2022-11-12T08:37:59.361Z,100681.50
2022-11-12T08:40:27.337Z,100688.50
2022-11-12T08:43:01.565Z,100693.72
2022-11-12T08:45:29.233Z,100701.47
2022-11-12T08:48:03.120Z,100701.75
2022-11-12T08:50:30.250Z,100717.34
2022-11-12T08:53:09.885Z,100724.44
2022-11-12T08:55:37.131Z,100730.47
2022-11-12T08:58:04.629Z,100734.63
2022-11-12T09:00:34.309Z,100729.66
2022-11-12T09:03:01.975Z,100738.41
2022-11-12T09:05:28.722Z,100747.94
2022-11-12T09:08:03.888Z,100754.16
2022-11-12T09:10:30.622Z,100760.22
2022-11-12T09:12:57.241Z,100766.38
2022-11-12T09:15:40.958Z,100766.44
2022-11-12T09:18:12.342Z,100773.44
2022-11-12T09:20:39.039Z,100777.75
2022-11-12T09:23:08.444Z,100780.50
2022-11-12T09:25:35.208Z,100790.94
2022-11-12T09:28:13.070Z,100788.41
2022-11-12T09:30:46.781Z,100787.59
2022-11-12T09:33:18.555Z,100787.69
2022-11-12T09:35:46.717Z,100790.31
2022-11-12T09:38:15.163Z,100790.38
2022-11-12T09:40:50.831Z,100781.75
2022-11-12T09:43:27.772Z,100787.84
2022-11-12T09:46:21.914Z,100786.97
2022-11-12T09:48:52.766Z,100786.16
2022-11-12T09:51:27.102Z,100792.34
2022-11-12T09:53:59.698Z,100791.41
2022-11-12T09:56:28.334Z,100789.84
2022-11-12T09:58:55.036Z,100798.63
2022-11-12T10:01:58.735Z,100804.66
2022-11-12T10:04:47.294Z,100803.78
2022-11-12T10:07:24.625Z,100812.59
2022-11-12T10:10:13.581Z,100811.84
2022-11-12T10:12:48.997Z,100804.06
2022-11-12T10:15:54.471Z,100805.03
2022-11-12T10:18:27.507Z,100798.09
2022-11-12T10:21:12.937Z,100796.44
2022-11-12T10:23:43.524Z,100793.94
2022-11-12T10:26:16.019Z,100787.97
2022-11-12T10:28:49.529Z,100794.84
2022-11-12T10:31:19.319Z,100785.34
2022-11-12T10:33:46.221Z,100784.53
2022-11-12T10:36:17.198Z,100787.25
2022-11-12T10:38:47.531Z,100791.66
2022-11-12T10:41:25.290Z,100783.91
2022-11-12T10:44:01.697Z,100778.75
2022-11-12T10:46:38.447Z,100783.13
2022-11-12T10:49:21.545Z,100780.59
2022-11-12T10:51:56.863Z,100774.53
2022-11-12T10:54:29.444Z,100765.91
2022-11-12T10:56:56.352Z,100761.66
2022-11-12T10:59:25.995Z,100765.16
2022-11-12T11:01:58.784Z,100759.97
2022-11-12T11:04:35.588Z,100762.69
2022-11-12T11:07:06.414Z,100754.91
2022-11-12T11:09:34.139Z,100768.75
2022-11-12T11:12:00.697Z,100755.00
2022-11-12T11:14:29.995Z,100751.50
2022-11-12T11:17:15.572Z,100752.38
2022-11-12T11:19:42.830Z,100753.25
2022-11-12T11:22:22.348Z,100753.31
2022-11-12T11:25:00.897Z,100749.00
2022-11-12T11:27:42.456Z,100755.94
2022-11-12T11:30:19.614Z,100755.91
2022-11-12T11:33:14.296Z,100752.53
2022-11-12T11:35:59.176Z,100746.50
2022-11-12T11:38:35.080Z,100751.78
2022-11-12T11:41:22.740Z,100746.59
2022-11-12T11:44:22.118Z,100750.00
2022-11-12T11:47:22.026Z,100743.13
2022-11-12T11:50:00.629Z,100750.88
2022-11-12T11:52:41.894Z,100738.81
2022-11-12T11:55:19.066Z,100743.13
2022-11-12T11:58:30.222Z,100728.47
2022-11-12T12:01:18.645Z,100733.78
2022-11-12T12:04:07.271Z,100721.69
2022-11-12T12:06:57.880Z,100726.91
2022-11-12T12:09:53.413Z,100725.22
2022-11-12T12:12:47.861Z,100717.34
2022-11-12T12:15:42.837Z,100718.22
2022-11-12T12:18:39.418Z,100715.66
2022-11-12T12:21:15.968Z,100718.25
2022-11-12T12:24:17.698Z,100710.53
2022-11-12T12:27:03.623Z,100701.06
2022-11-12T12:29:39.122Z,100714.06
2022-11-12T12:32:36.782Z,100714.00
2022-11-12T12:35:37.336Z,100707.97
2022-11-12T12:38:15.833Z,100704.50
2022-11-12T12:41:01.849Z,100690.59
2022-11-12T12:43:46.558Z,100687.22
2022-11-12T12:46:16.274Z,100691.59
2022-11-12T12:48:45.134Z,100695.94
2022-11-12T12:51:12.545Z,100689.91
2022-11-12T12:53:40.243Z,100689.91
2022-11-12T12:56:32.652Z,100687.31
2022-11-12T12:59:03.682Z,100689.03
2022-11-12T13:01:35.377Z,100679.53
2022-11-12T13:04:08.887Z,100677.84
2022-11-12T13:06:46.893Z,100669.16
2022-11-12T13:09:13.373Z,100663.19
2022-11-12T13:12:01.328Z,100656.28
2022-11-12T13:14:36.890Z,100664.09
2022-11-12T13:17:13.165Z,100662.38
2022-11-12T13:19:39.600Z,100652.88
2022-11-12T13:22:18.474Z,100646.78
2022-11-12T13:25:13.211Z,100645.91
2022-11-12T13:27:43.341Z,100635.53
2022-11-12T13:30:20.742Z,100642.44
2022-11-12T13:32:47.164Z,100638.22
2022-11-12T13:35:22.702Z,100631.28
2022-11-12T13:38:01.770Z,100629.63
2022-11-12T13:40:46.459Z,100629.63
2022-11-12T13:43:15.769Z,100627.06
2022-11-12T13:45:58.619Z,100615.75
2022-11-12T13:48:29.706Z,100624.41
2022-11-12T13:51:01.482Z,100625.28
2022-11-12T13:53:30.608Z,100630.47
2022-11-12T13:55:57.148Z,100634.78
2022-11-12T13:58:30.042Z,100630.47
2022-11-12T14:01:01.709Z,100624.41
2022-11-12T14:03:34.456Z,100627.88
2022-11-12T14:06:15.385Z,100613.19
2022-11-12T14:09:06.345Z,100620.13
2022-11-12T14:12:10.150Z,100615.78
2022-11-12T14:14:57.629Z,100609.69
2022-11-12T14:17:35.097Z,100601.88
2022-11-12T14:20:07.661Z,100598.47
2022-11-12T14:22:42.555Z,100597.63
2022-11-12T14:25:21.667Z,100595.03
2022-11-12T14:27:53.169Z,100592.44
2022-11-12T14:30:21.560Z,100588.97
2022-11-12T14:32:54.247Z,100580.25
2022-11-12T14:35:38.959Z,100579.41
2022-11-12T14:38:29.284Z,100588.94
2022-11-12T14:41:07.878Z,100590.69
2022-11-12T14:43:45.959Z,100591.56
2022-11-12T14:46:30.317Z,100589.81
2022-11-12T14:49:03.092Z,100586.38
2022-11-12T14:51:32.547Z,100583.75
2022-11-12T14:54:09.756Z,100590.66
2022-11-12T14:56:43.376Z,100590.69
2022-11-12T14:59:15.278Z,100582.88
2022-11-12T15:02:33.501Z,100578.56
2022-11-12T15:05:14.094Z,100580.28
2022-11-12T15:07:54.424Z,100574.19
2022-11-12T15:10:40.601Z,100569.88
2022-11-12T15:13:10.913Z,100568.16
2022-11-12T15:15:40.313Z,100571.59
2022-11-12T15:18:19.920Z,100569.81
2022-11-12T15:21:00.399Z,100561.13
2022-11-12T15:23:27.128Z,100555.09
2022-11-12T15:25:59.316Z,100548.13
2022-11-12T15:28:26.671Z,100548.06
2022-11-12T15:31:21.743Z,100542.00
2022-11-12T15:33:48.346Z,100545.47
2022-11-12T15:36:18.186Z,100540.28
2022-11-12T15:38:53.355Z,100541.09
2022-11-12T15:41:30.676Z,100530.69
2022-11-12T15:43:57.396Z,100533.25
2022-11-12T15:46:23.916Z,100529.81
2022-11-12T15:48:54.651Z,100534.97
2022-11-12T15:51:22.565Z,100534.09
2022-11-12T15:53:49.053Z,100534.09
2022-11-12T15:56:19.198Z,100533.19
2022-11-12T15:58:48.849Z,100532.28
2022-11-12T16:01:15.466Z,100527.94
2022-11-12T16:03:41.945Z,100531.31
2022-11-12T16:06:11.592Z,100526.97
2022-11-12T16:08:38.194Z,100525.22
2022-11-12T16:11:24.790Z,100525.13
2022-11-12T16:13:51.373Z,100521.72
2022-11-12T16:16:17.924Z,100511.31
2022-11-12T16:18:44.382Z,100509.47
2022-11-12T16:21:10.892Z,100509.41
2022-11-12T16:23:37.396Z,100499.09
2022-11-12T16:26:09.415Z,100504.19
2022-11-12T16:28:35.929Z,100505.91
2022-11-12T16:31:03.222Z,100505.81
2022-11-12T16:33:30.063Z,100503.13
2022-11-12T16:35:56.770Z,100503.25
2022-11-12T16:38:25.830Z,100506.63
2022-11-12T16:40:52.321Z,100507.44
2022-11-12T16:43:18.788Z,100510.00
2022-11-12T16:45:45.486Z,100509.19
2022-11-12T16:48:22.351Z,100509.97
2022-11-12T16:50:49.772Z,100519.34
2022-11-12T16:53:16.293Z,100511.53
2022-11-12T16:55:43.024Z,100514.09
2022-11-12T16:58:15.400Z,100510.63
2022-11-12T17:00:46.032Z,100511.56
2022-11-12T17:03:13.858Z,100513.19
2022-11-12T17:05:40.396Z,100507.16
2022-11-12T17:08:07.089Z,100512.34
2022-11-12T17:10:33.965Z,100513.25
2022-11-12T17:13:00.522Z,100512.44
2022-11-12T17:15:27.115Z,100511.50
2022-11-12T17:17:54.292Z,100519.16
2022-11-12T17:20:20.805Z,100514.81
2022-11-12T17:22:47.272Z,100520.88
2022-11-12T17:25:13.872Z,100525.13
2022-11-12T17:27:40.661Z,100522.47
2022-11-12T17:30:07.477Z,100522.38
2022-11-12T17:32:33.962Z,100529.31
2022-11-12T17:35:00.457Z,100521.44
2022-11-12T17:37:27.020Z,100517.16
2022-11-12T17:39:53.594Z,100520.63
2022-11-12T17:42:20.169Z,100521.47
2022-11-12T17:44:46.706Z,100523.97
2022-11-12T17:47:13.208Z,100531.72
2022-11-12T17:49:39.881Z,100534.34
2022-11-12T17:52:07.133Z,100536.00
2022-11-12T17:54:34.506Z,100528.94
2022-11-12T17:57:01.158Z,100522.84
2022-11-12T17:59:27.647Z,100528.81
2022-11-12T18:01:54.124Z,100526.28
2022-11-12T18:04:23.483Z,100526.19
2022-11-12T18:06:50.588Z,100528.78
2022-11-12T18:09:17.189Z,100524.34
2022-11-12T18:11:49.278Z,100523.34
2022-11-12T18:14:16.069Z,100530.31
2022-11-12T18:16:42.687Z,100522.41
2022-11-12T18:19:11.044Z,100528.53
2022-11-12T18:21:39.810Z,100526.69
2022-11-12T18:24:06.923Z,100523.06
2022-11-12T18:26:33.793Z,100516.22
2022-11-12T18:29:00.545Z,100505.75
2022-11-12T18:31:27.841Z,100501.44
2022-11-12T18:33:55.590Z,100502.38
2022-11-12T18:36:26.192Z,100497.22
2022-11-12T18:38:54.653Z,100495.38
2022-11-12T18:41:25.719Z,100494.50
2022-11-12T18:43:56.689Z,100495.38
2022-11-12T18:46:23.685Z,100491.94
2022-11-12T18:48:50.219Z,100485.03
2022-11-12T18:51:18.326Z,100491.81
2022-11-12T18:53:46.184Z,100493.50
2022-11-12T18:56:17.257Z,100500.28
2022-11-12T18:58:44.288Z,100506.34
2022-11-12T19:01:17.075Z,100500.31
2022-11-12T19:03:44.102Z,100503.63
2022-11-12T19:06:12.638Z,100501.03
2022-11-12T19:08:39.901Z,100509.66
2022-11-12T19:11:12.446Z,100513.91
2022-11-12T19:13:39.740Z,100502.72
2022-11-12T19:16:17.109Z,100511.16
2022-11-12T19:18:44.910Z,100506.13
2022-11-12T19:21:14.416Z,100508.63
2022-11-12T19:23:43.119Z,100503.44
2022-11-12T19:26:13.797Z,100500.81
2022-11-12T19:28:41.247Z,100495.53
2022-11-12T19:31:12.915Z,100503.16
2022-11-12T19:33:40.131Z,100498.81
2022-11-12T19:36:09.042Z,100502.31
2022-11-12T19:38:35.664Z,100509.94
2022-11-12T19:41:07.046Z,100515.97
2022-11-12T19:43:34.130Z,100506.59
2022-11-12T19:46:01.092Z,100504.03
2022-11-12T19:48:27.937Z,100515.13
2022-11-12T19:50:54.747Z,100515.06
2022-11-12T19:53:21.316Z,100504.53
2022-11-12T19:55:47.827Z,100514.88
2022-11-12T19:58:14.326Z,100502.72
2022-11-12T20:00:40.871Z,100506.75
2022-11-12T20:03:07.339Z,100503.97
2022-11-12T20:05:33.838Z,100497.84
2022-11-12T20:08:00.428Z,100503.78
2022-11-12T20:10:26.876Z,100503.63
2022-11-12T20:12:54.602Z,100502.81
2022-11-12T20:15:21.073Z,100491.56
2022-11-12T20:17:47.564Z,100486.34
2022-11-12T20:20:14.472Z,100482.00
2022-11-12T20:22:40.981Z,100482.78
2022-11-12T20:25:07.943Z,100478.59
2022-11-12T20:27:34.568Z,100474.97
2022-11-12T20:30:01.046Z,100473.91
2022-11-12T20:32:27.580Z,100472.00
2022-11-12T20:34:54.158Z,100474.78
2022-11-12T20:37:20.766Z,100472.81
2022-11-12T20:39:47.243Z,100470.28
2022-11-12T20:42:13.926Z,100472.25
2022-11-12T20:44:41.191Z,100475.44
2022-11-12T20:47:07.764Z,100467.03
2022-11-12T20:49:34.322Z,100462.84
2022-11-12T20:52:00.809Z,100468.78
2022-11-12T20:54:27.295Z,100459.28
2022-11-12T20:56:55.093Z,100466.75
2022-11-12T20:59:22.110Z,100469.28
2022-11-12T21:01:48.615Z,100465.75
2022-11-12T21:04:15.197Z,100460.41
2022-11-12T21:06:41.701Z,100462.16
2022-11-12T21:09:08.237Z,100458.66
2022-11-12T21:11:34.798Z,100451.91
2022-11-12T21:14:01.254Z,100457.06
2022-11-12T21:16:27.872Z,100449.03
2022-11-12T21:18:54.423Z,100453.25
2022-11-12T21:21:21.337Z,100445.53
2022-11-12T21:23:50.270Z,100444.69
2022-11-12T21:26:19.423Z,100448.84
2022-11-12T21:28:48.869Z,100439.53
2022-11-12T21:31:28.601Z,100434.38
2022-11-12T21:34:00.547Z,100439.47
2022-11-12T21:36:28.097Z,100434.19
2022-11-12T21:38:54.769Z,100431.63
2022-11-12T21:41:24.200Z,100424.75
2022-11-12T21:43:51.162Z,100428.81
2022-11-12T21:46:24.804Z,100430.00
2022-11-12T21:48:55.116Z,100426.25
2022-11-12T21:51:30.279Z,100427.25
2022-11-12T21:54:02.296Z,100433.25
2022-11-12T21:56:29.586Z,100430.81
2022-11-12T21:59:00.628Z,100434.22
2022-11-12T22:01:29.689Z,100432.41
2022-11-12T22:03:58.046Z,100421.94
2022-11-12T22:06:27.740Z,100421.97
2022-11-12T22:08:55.952Z,100421.03
2022-11-12T22:11:23.070Z,100417.53
2022-11-12T22:13:50.045Z,100404.75
2022-11-12T22:16:19.426Z,100413.53
2022-11-12T22:18:47.662Z,100410.06
2022-11-12T22:21:17.851Z,100413.41
2022-11-12T22:23:44.882Z,100410.75
2022-11-12T22:26:16.850Z,100408.00
2022-11-12T22:28:43.857Z,100413.28
2022-11-12T22:31:12.966Z,100411.38
2022-11-12T22:33:40.048Z,100399.19
2022-11-12T22:36:14.920Z,100406.25
2022-11-12T22:38:44.159Z,100392.50
2022-11-12T22:41:19.284Z,100396.72
2022-11-12T22:43:51.137Z,100393.94
2022-11-12T22:46:20.569Z,100383.66
2022-11-12T22:48:47.077Z,100377.50
2022-11-12T22:51:18.798Z,100381.78
2022-11-12T22:53:45.590Z,100385.06
2022-11-12T22:56:15.786Z,100372.88
2022-11-12T22:58:45.194Z,100368.69
2022-11-12T23:01:28.280Z,100368.38
2022-11-12T23:03:57.310Z,100363.28
2022-11-12T23:06:24.849Z,100372.50
2022-11-12T23:08:53.173Z,100359.31
2022-11-12T23:11:20.814Z,100349.59
2022-11-12T23:13:48.671Z,100344.28
2022-11-12T23:16:18.396Z,100341.47
2022-11-12T23:18:45.700Z,100334.44
2022-11-12T23:21:15.130Z,100314.50
2022-11-12T23:23:41.718Z,100308.63
2022-11-12T23:26:20.450Z,100297.38
2022-11-12T23:28:47.202Z,100309.22
2022-11-12T23:31:19.909Z,100296.44
2022-11-12T23:33:47.909Z,100290.44
2022-11-12T23:36:14.947Z,100296.59
2022-11-12T23:38:42.062Z,100286.09
2022-11-12T23:41:11.093Z,100283.31
2022-11-12T23:43:37.566Z,100279.13
2022-11-12T23:46:04.725Z,100275.47
2022-11-12T23:48:32.243Z,100275.78
2022-11-12T23:51:12.812Z,100276.41
2022-11-12T23:53:40.139Z,100271.94
2022-11-12T23:56:09.362Z,100263.78
2022-11-12T23:58:37.177Z,100244.88
